sensor_id;sensor_type;location;lat;lon;timestamp;P1;durP1;ratioP1;P2;durP2;ratioP2
4742;SDS011;24293;48.154;7.748;2023-06-26T00:01:02;11.87;;;5.90;;
4742;SDS011;24293;48.154;7.748;2023-06-26T00:03:30;9.10;;;5.70;;
4742;SDS011;24293;48.154;7.748;2023-06-26T00:05:57;14.27;;;7.20;;
4742;SDS011;24293;48.154;7.748;2023-06-26T00:08:25;13.03;;;6.33;;
4742;SDS011;24293;48.154;7.748;2023-06-26T00:10:52;12.03;;;5.80;;
4742;SDS011;24293;48.154;7.748;2023-06-26T00:13:20;10.30;;;6.20;;
4742;SDS011;24293;48.154;7.748;2023-06-26T00:15:46;9.43;;;5.83;;
4742;SDS011;24293;48.154;7.748;2023-06-26T00:18:12;10.73;;;5.93;;
4742;SDS011;24293;48.154;7.748;2023-06-26T00:20:39;12.80;;;6.47;;
4742;SDS011;24293;48.154;7.748;2023-06-26T00:23:05;9.17;;;5.90;;
4742;SDS011;24293;48.154;7.748;2023-06-26T00:25:32;10.90;;;6.67;;
4742;SDS011;24293;48.154;7.748;2023-06-26T00:27:59;12.00;;;6.07;;
4742;SDS011;24293;48.154;7.748;2023-06-26T00:30:27;10.43;;;6.47;;
4742;SDS011;24293;48.154;7.748;2023-06-26T00:32:54;10.93;;;6.00;;
4742;SDS011;24293;48.154;7.748;2023-06-26T00:35:20;10.17;;;6.53;;
4742;SDS011;24293;48.154;7.748;2023-06-26T00:37:47;13.13;;;6.57;;
4742;SDS011;24293;48.154;7.748;2023-06-26T00:40:14;12.67;;;6.73;;
4742;SDS011;24293;48.154;7.748;2023-06-26T00:42:41;10.23;;;6.80;;
4742;SDS011;24293;48.154;7.748;2023-06-26T00:45:08;11.60;;;6.57;;
4742;SDS011;24293;48.154;7.748;2023-06-26T00:47:36;9.33;;;6.30;;
4742;SDS011;24293;48.154;7.748;2023-06-26T00:50:02;10.33;;;7.10;;
4742;SDS011;24293;48.154;7.748;2023-06-26T00:52:30;12.80;;;6.93;;
4742;SDS011;24293;48.154;7.748;2023-06-26T00:54:57;10.13;;;6.83;;
4742;SDS011;24293;48.154;7.748;2023-06-26T00:57:23;10.03;;;6.50;;
4742;SDS011;24293;48.154;7.748;2023-06-26T00:59:50;12.73;;;6.50;;
4742;SDS011;24293;48.154;7.748;2023-06-26T01:02:17;10.83;;;6.37;;
4742;SDS011;24293;48.154;7.748;2023-06-26T01:04:47;10.57;;;6.60;;
4742;SDS011;24293;48.154;7.748;2023-06-26T01:07:14;11.27;;;6.40;;
4742;SDS011;24293;48.154;7.748;2023-06-26T01:09:43;9.40;;;6.33;;
4742;SDS011;24293;48.154;7.748;2023-06-26T01:12:10;10.00;;;5.53;;
4742;SDS011;24293;48.154;7.748;2023-06-26T01:14:37;7.50;;;5.43;;
4742;SDS011;24293;48.154;7.748;2023-06-26T01:17:03;10.10;;;6.03;;
4742;SDS011;24293;48.154;7.748;2023-06-26T01:19:30;9.20;;;5.83;;
4742;SDS011;24293;48.154;7.748;2023-06-26T01:22:02;8.87;;;5.60;;
4742;SDS011;24293;48.154;7.748;2023-06-26T01:24:42;11.47;;;6.77;;
4742;SDS011;24293;48.154;7.748;2023-06-26T01:27:12;9.70;;;6.53;;
4742;SDS011;24293;48.154;7.748;2023-06-26T01:29:39;9.70;;;5.53;;
4742;SDS011;24293;48.154;7.748;2023-06-26T01:32:06;10.20;;;5.90;;
4742;SDS011;24293;48.154;7.748;2023-06-26T01:34:33;8.80;;;5.73;;
4742;SDS011;24293;48.154;7.748;2023-06-26T01:37:00;11.67;;;6.07;;
4742;SDS011;24293;48.154;7.748;2023-06-26T01:39:26;21.13;;;7.37;;
4742;SDS011;24293;48.154;7.748;2023-06-26T01:41:52;15.40;;;6.27;;
4742;SDS011;24293;48.154;7.748;2023-06-26T01:44:25;10.70;;;6.70;;
4742;SDS011;24293;48.154;7.748;2023-06-26T01:46:56;11.60;;;7.10;;
4742;SDS011;24293;48.154;7.748;2023-06-26T01:49:26;11.07;;;5.97;;
4742;SDS011;24293;48.154;7.748;2023-06-26T01:51:55;11.03;;;6.47;;
4742;SDS011;24293;48.154;7.748;2023-06-26T01:54:23;11.50;;;6.67;;
4742;SDS011;24293;48.154;7.748;2023-06-26T01:56:52;12.80;;;6.50;;
4742;SDS011;24293;48.154;7.748;2023-06-26T01:59:19;10.83;;;6.30;;
4742;SDS011;24293;48.154;7.748;2023-06-26T02:01:48;11.00;;;5.90;;
4742;SDS011;24293;48.154;7.748;2023-06-26T02:04:15;8.83;;;5.83;;
4742;SDS011;24293;48.154;7.748;2023-06-26T02:06:41;14.90;;;6.60;;
4742;SDS011;24293;48.154;7.748;2023-06-26T02:09:08;19.10;;;6.70;;
4742;SDS011;24293;48.154;7.748;2023-06-26T02:11:34;11.07;;;5.70;;
4742;SDS011;24293;48.154;7.748;2023-06-26T02:14:00;13.77;;;6.70;;
4742;SDS011;24293;48.154;7.748;2023-06-26T02:16:27;12.23;;;6.13;;
4742;SDS011;24293;48.154;7.748;2023-06-26T02:18:55;8.87;;;5.50;;
4742;SDS011;24293;48.154;7.748;2023-06-26T02:21:22;11.77;;;7.00;;
4742;SDS011;24293;48.154;7.748;2023-06-26T02:23:49;8.70;;;5.73;;
4742;SDS011;24293;48.154;7.748;2023-06-26T02:26:15;15.70;;;6.67;;
4742;SDS011;24293;48.154;7.748;2023-06-26T02:28:42;11.53;;;6.40;;
4742;SDS011;24293;48.154;7.748;2023-06-26T02:31:09;11.50;;;6.30;;
4742;SDS011;24293;48.154;7.748;2023-06-26T02:33:35;9.87;;;6.20;;
4742;SDS011;24293;48.154;7.748;2023-06-26T02:36:03;15.30;;;6.13;;
4742;SDS011;24293;48.154;7.748;2023-06-26T02:38:30;9.93;;;5.90;;
4742;SDS011;24293;48.154;7.748;2023-06-26T02:40:56;12.20;;;6.77;;
4742;SDS011;24293;48.154;7.748;2023-06-26T02:43:22;12.17;;;6.60;;
4742;SDS011;24293;48.154;7.748;2023-06-26T02:45:49;12.20;;;7.23;;
4742;SDS011;24293;48.154;7.748;2023-06-26T02:48:15;16.20;;;6.97;;
4742;SDS011;24293;48.154;7.748;2023-06-26T02:50:42;9.57;;;6.37;;
4742;SDS011;24293;48.154;7.748;2023-06-26T02:53:12;11.03;;;6.30;;
4742;SDS011;24293;48.154;7.748;2023-06-26T02:55:38;12.40;;;7.20;;
4742;SDS011;24293;48.154;7.748;2023-06-26T02:58:05;11.20;;;7.00;;
4742;SDS011;24293;48.154;7.748;2023-06-26T03:00:31;13.13;;;7.07;;
4742;SDS011;24293;48.154;7.748;2023-06-26T03:02:58;11.00;;;7.60;;
4742;SDS011;24293;48.154;7.748;2023-06-26T03:05:24;16.40;;;7.80;;
4742;SDS011;24293;48.154;7.748;2023-06-26T03:07:51;15.50;;;8.97;;
4742;SDS011;24293;48.154;7.748;2023-06-26T03:10:19;11.70;;;7.40;;
4742;SDS011;24293;48.154;7.748;2023-06-26T03:12:45;11.97;;;7.40;;
4742;SDS011;24293;48.154;7.748;2023-06-26T03:15:12;11.73;;;7.13;;
4742;SDS011;24293;48.154;7.748;2023-06-26T03:17:38;12.90;;;6.90;;
4742;SDS011;24293;48.154;7.748;2023-06-26T03:20:08;11.40;;;7.20;;
4742;SDS011;24293;48.154;7.748;2023-06-26T03:22:35;12.40;;;6.83;;
4742;SDS011;24293;48.154;7.748;2023-06-26T03:25:01;10.97;;;6.83;;
4742;SDS011;24293;48.154;7.748;2023-06-26T03:27:29;14.80;;;6.67;;
4742;SDS011;24293;48.154;7.748;2023-06-26T03:29:56;13.20;;;6.70;;
4742;SDS011;24293;48.154;7.748;2023-06-26T03:32:22;13.83;;;6.57;;
4742;SDS011;24293;48.154;7.748;2023-06-26T03:34:48;16.53;;;8.30;;
4742;SDS011;24293;48.154;7.748;2023-06-26T03:37:15;23.20;;;7.20;;
4742;SDS011;24293;48.154;7.748;2023-06-26T03:39:41;14.30;;;6.87;;
4742;SDS011;24293;48.154;7.748;2023-06-26T03:42:08;15.77;;;8.17;;
4742;SDS011;24293;48.154;7.748;2023-06-26T03:44:36;12.07;;;7.00;;
4742;SDS011;24293;48.154;7.748;2023-06-26T03:47:02;15.77;;;6.97;;
4742;SDS011;24293;48.154;7.748;2023-06-26T03:49:29;23.53;;;7.47;;
4742;SDS011;24293;48.154;7.748;2023-06-26T03:51:55;17.07;;;7.60;;
4742;SDS011;24293;48.154;7.748;2023-06-26T03:54:21;11.10;;;6.03;;
4742;SDS011;24293;48.154;7.748;2023-06-26T03:56:48;18.03;;;6.37;;
4742;SDS011;24293;48.154;7.748;2023-06-26T03:59:14;12.70;;;7.80;;
4742;SDS011;24293;48.154;7.748;2023-06-26T04:01:42;17.77;;;7.00;;
4742;SDS011;24293;48.154;7.748;2023-06-26T04:04:09;20.30;;;7.13;;
4742;SDS011;24293;48.154;7.748;2023-06-26T04:06:35;14.60;;;6.93;;
4742;SDS011;24293;48.154;7.748;2023-06-26T04:09:01;12.40;;;7.60;;
4742;SDS011;24293;48.154;7.748;2023-06-26T04:11:29;20.63;;;7.47;;
4742;SDS011;24293;48.154;7.748;2023-06-26T04:13:56;13.67;;;6.83;;
4742;SDS011;24293;48.154;7.748;2023-06-26T04:16:22;23.70;;;7.97;;
4742;SDS011;24293;48.154;7.748;2023-06-26T04:18:51;19.23;;;7.90;;
4742;SDS011;24293;48.154;7.748;2023-06-26T04:21:18;23.23;;;8.70;;
4742;SDS011;24293;48.154;7.748;2023-06-26T04:23:45;21.43;;;8.20;;
4742;SDS011;24293;48.154;7.748;2023-06-26T04:26:12;26.70;;;7.93;;
4742;SDS011;24293;48.154;7.748;2023-06-26T04:28:39;17.30;;;6.90;;
4742;SDS011;24293;48.154;7.748;2023-06-26T04:31:06;17.00;;;7.33;;
4742;SDS011;24293;48.154;7.748;2023-06-26T04:33:36;17.73;;;7.80;;
4742;SDS011;24293;48.154;7.748;2023-06-26T04:36:04;20.00;;;8.03;;
4742;SDS011;24293;48.154;7.748;2023-06-26T04:38:31;14.53;;;7.93;;
4742;SDS011;24293;48.154;7.748;2023-06-26T04:40:58;19.23;;;8.57;;
4742;SDS011;24293;48.154;7.748;2023-06-26T04:43:24;20.03;;;7.80;;
4742;SDS011;24293;48.154;7.748;2023-06-26T04:45:51;20.40;;;8.60;;
4742;SDS011;24293;48.154;7.748;2023-06-26T04:48:17;14.20;;;7.53;;
4742;SDS011;24293;48.154;7.748;2023-06-26T04:50:43;13.90;;;7.37;;
4742;SDS011;24293;48.154;7.748;2023-06-26T04:53:20;14.70;;;7.00;;
4742;SDS011;24293;48.154;7.748;2023-06-26T04:55:48;14.10;;;7.30;;
4742;SDS011;24293;48.154;7.748;2023-06-26T04:58:15;14.57;;;8.10;;
4742;SDS011;24293;48.154;7.748;2023-06-26T05:00:41;15.40;;;7.97;;
4742;SDS011;24293;48.154;7.748;2023-06-26T05:03:08;15.80;;;7.37;;
4742;SDS011;24293;48.154;7.748;2023-06-26T05:05:35;17.13;;;8.40;;
4742;SDS011;24293;48.154;7.748;2023-06-26T05:08:12;13.10;;;7.50;;
4742;SDS011;24293;48.154;7.748;2023-06-26T05:10:40;21.50;;;10.20;;
4742;SDS011;24293;48.154;7.748;2023-06-26T05:13:07;14.10;;;7.63;;
4742;SDS011;24293;48.154;7.748;2023-06-26T05:15:33;14.97;;;8.23;;
4742;SDS011;24293;48.154;7.748;2023-06-26T05:18:00;16.83;;;6.90;;
4742;SDS011;24293;48.154;7.748;2023-06-26T05:20:26;14.37;;;6.70;;
4742;SDS011;24293;48.154;7.748;2023-06-26T05:22:53;10.27;;;6.43;;
4742;SDS011;24293;48.154;7.748;2023-06-26T05:25:20;11.60;;;6.83;;
4742;SDS011;24293;48.154;7.748;2023-06-26T05:27:48;12.00;;;6.80;;
4742;SDS011;24293;48.154;7.748;2023-06-26T05:30:16;10.33;;;6.30;;
4742;SDS011;24293;48.154;7.748;2023-06-26T05:32:42;13.83;;;7.43;;
4742;SDS011;24293;48.154;7.748;2023-06-26T05:35:12;10.80;;;7.20;;
4742;SDS011;24293;48.154;7.748;2023-06-26T05:37:39;19.53;;;7.10;;
4742;SDS011;24293;48.154;7.748;2023-06-26T05:40:07;11.20;;;7.20;;
4742;SDS011;24293;48.154;7.748;2023-06-26T05:42:34;12.67;;;6.80;;
4742;SDS011;24293;48.154;7.748;2023-06-26T05:45:02;11.03;;;6.93;;
4742;SDS011;24293;48.154;7.748;2023-06-26T05:47:29;13.70;;;7.40;;
4742;SDS011;24293;48.154;7.748;2023-06-26T05:49:56;14.77;;;8.30;;
4742;SDS011;24293;48.154;7.748;2023-06-26T05:52:23;9.47;;;6.60;;
4742;SDS011;24293;48.154;7.748;2023-06-26T05:54:49;9.77;;;7.20;;
4742;SDS011;24293;48.154;7.748;2023-06-26T05:57:16;13.00;;;7.00;;
4742;SDS011;24293;48.154;7.748;2023-06-26T05:59:43;11.30;;;7.23;;
4742;SDS011;24293;48.154;7.748;2023-06-26T06:02:11;15.73;;;7.30;;
4742;SDS011;24293;48.154;7.748;2023-06-26T06:04:38;11.30;;;6.77;;
4742;SDS011;24293;48.154;7.748;2023-06-26T06:07:04;12.60;;;7.27;;
4742;SDS011;24293;48.154;7.748;2023-06-26T06:09:31;10.43;;;6.07;;
4742;SDS011;24293;48.154;7.748;2023-06-26T06:11:58;10.40;;;6.20;;
4742;SDS011;24293;48.154;7.748;2023-06-26T06:14:24;11.13;;;6.83;;
4742;SDS011;24293;48.154;7.748;2023-06-26T06:16:51;11.07;;;6.20;;
4742;SDS011;24293;48.154;7.748;2023-06-26T06:19:19;9.70;;;6.17;;
4742;SDS011;24293;48.154;7.748;2023-06-26T06:21:45;10.70;;;6.27;;
4742;SDS011;24293;48.154;7.748;2023-06-26T06:24:12;12.60;;;7.07;;
4742;SDS011;24293;48.154;7.748;2023-06-26T06:26:39;11.57;;;5.97;;
4742;SDS011;24293;48.154;7.748;2023-06-26T06:29:05;10.27;;;6.00;;
4742;SDS011;24293;48.154;7.748;2023-06-26T06:31:32;11.03;;;6.93;;
4742;SDS011;24293;48.154;7.748;2023-06-26T06:33:58;9.37;;;5.80;;
4742;SDS011;24293;48.154;7.748;2023-06-26T06:36:26;11.43;;;6.40;;
4742;SDS011;24293;48.154;7.748;2023-06-26T06:38:53;12.10;;;6.43;;
4742;SDS011;24293;48.154;7.748;2023-06-26T06:41:19;10.30;;;6.97;;
4742;SDS011;24293;48.154;7.748;2023-06-26T06:43:46;10.07;;;6.30;;
4742;SDS011;24293;48.154;7.748;2023-06-26T06:46:12;15.37;;;7.00;;
4742;SDS011;24293;48.154;7.748;2023-06-26T06:48:39;12.07;;;6.70;;
4742;SDS011;24293;48.154;7.748;2023-06-26T06:51:05;9.53;;;5.73;;
4742;SDS011;24293;48.154;7.748;2023-06-26T06:53:33;11.10;;;6.90;;
4742;SDS011;24293;48.154;7.748;2023-06-26T06:56:00;11.23;;;6.57;;
4742;SDS011;24293;48.154;7.748;2023-06-26T06:58:26;8.33;;;5.90;;
4742;SDS011;24293;48.154;7.748;2023-06-26T07:00:53;12.27;;;6.20;;
4742;SDS011;24293;48.154;7.748;2023-06-26T07:03:19;9.20;;;6.50;;
4742;SDS011;24293;48.154;7.748;2023-06-26T07:05:47;10.00;;;6.00;;
4742;SDS011;24293;48.154;7.748;2023-06-26T07:08:13;11.67;;;6.67;;
4742;SDS011;24293;48.154;7.748;2023-06-26T07:10:41;18.20;;;6.50;;
4742;SDS011;24293;48.154;7.748;2023-06-26T07:13:07;13.63;;;6.30;;
4742;SDS011;24293;48.154;7.748;2023-06-26T07:15:34;9.73;;;6.60;;
4742;SDS011;24293;48.154;7.748;2023-06-26T07:18:00;14.83;;;7.13;;
4742;SDS011;24293;48.154;7.748;2023-06-26T07:20:27;12.33;;;6.53;;
4742;SDS011;24293;48.154;7.748;2023-06-26T07:22:53;13.03;;;6.83;;
4742;SDS011;24293;48.154;7.748;2023-06-26T07:25:20;10.27;;;6.40;;
4742;SDS011;24293;48.154;7.748;2023-06-26T07:27:47;10.37;;;6.80;;
4742;SDS011;24293;48.154;7.748;2023-06-26T07:30:14;10.27;;;6.67;;
4742;SDS011;24293;48.154;7.748;2023-06-26T07:32:41;10.90;;;6.80;;
4742;SDS011;24293;48.154;7.748;2023-06-26T07:35:09;13.60;;;6.80;;
4742;SDS011;24293;48.154;7.748;2023-06-26T07:37:35;9.40;;;6.00;;
4742;SDS011;24293;48.154;7.748;2023-06-26T07:40:02;10.93;;;6.33;;
4742;SDS011;24293;48.154;7.748;2023-06-26T07:42:28;10.20;;;6.47;;
4742;SDS011;24293;48.154;7.748;2023-06-26T07:44:56;8.80;;;6.13;;
4742;SDS011;24293;48.154;7.748;2023-06-26T07:47:23;11.00;;;7.23;;
4742;SDS011;24293;48.154;7.748;2023-06-26T07:49:49;10.40;;;6.77;;
4742;SDS011;24293;48.154;7.748;2023-06-26T07:52:16;9.73;;;6.20;;
4742;SDS011;24293;48.154;7.748;2023-06-26T07:54:43;12.10;;;6.63;;
4742;SDS011;24293;48.154;7.748;2023-06-26T07:57:09;11.30;;;6.83;;
4742;SDS011;24293;48.154;7.748;2023-06-26T07:59:37;12.33;;;7.17;;
4742;SDS011;24293;48.154;7.748;2023-06-26T08:02:05;12.40;;;7.63;;
4742;SDS011;24293;48.154;7.748;2023-06-26T08:04:32;18.70;;;6.80;;
4742;SDS011;24293;48.154;7.748;2023-06-26T08:06:59;11.10;;;6.23;;
4742;SDS011;24293;48.154;7.748;2023-06-26T08:09:27;12.77;;;6.43;;
4742;SDS011;24293;48.154;7.748;2023-06-26T08:11:53;13.10;;;7.30;;
4742;SDS011;24293;48.154;7.748;2023-06-26T08:14:20;9.70;;;7.00;;
4742;SDS011;24293;48.154;7.748;2023-06-26T08:16:47;9.77;;;6.40;;
4742;SDS011;24293;48.154;7.748;2023-06-26T08:19:15;10.00;;;6.30;;
4742;SDS011;24293;48.154;7.748;2023-06-26T08:21:42;16.07;;;6.97;;
4742;SDS011;24293;48.154;7.748;2023-06-26T08:24:09;11.73;;;6.50;;
4742;SDS011;24293;48.154;7.748;2023-06-26T08:26:36;13.83;;;6.50;;
4742;SDS011;24293;48.154;7.748;2023-06-26T08:29:02;10.57;;;7.20;;
4742;SDS011;24293;48.154;7.748;2023-06-26T08:31:32;11.43;;;7.00;;
4742;SDS011;24293;48.154;7.748;2023-06-26T08:33:59;12.40;;;7.00;;
4742;SDS011;24293;48.154;7.748;2023-06-26T08:36:27;12.40;;;7.10;;
4742;SDS011;24293;48.154;7.748;2023-06-26T08:38:54;15.40;;;6.77;;
4742;SDS011;24293;48.154;7.748;2023-06-26T08:41:20;11.70;;;6.70;;
4742;SDS011;24293;48.154;7.748;2023-06-26T08:43:47;11.40;;;6.63;;
4742;SDS011;24293;48.154;7.748;2023-06-26T08:46:14;11.97;;;6.90;;
4742;SDS011;24293;48.154;7.748;2023-06-26T08:48:41;15.00;;;7.47;;
4742;SDS011;24293;48.154;7.748;2023-06-26T08:51:09;10.77;;;6.93;;
4742;SDS011;24293;48.154;7.748;2023-06-26T08:53:43;8.63;;;6.07;;
4742;SDS011;24293;48.154;7.748;2023-06-26T08:56:11;25.23;;;7.53;;
4742;SDS011;24293;48.154;7.748;2023-06-26T08:58:39;18.63;;;7.97;;
4742;SDS011;24293;48.154;7.748;2023-06-26T09:01:05;13.30;;;6.73;;
4742;SDS011;24293;48.154;7.748;2023-06-26T09:03:32;8.87;;;6.63;;
4742;SDS011;24293;48.154;7.748;2023-06-26T09:05:59;11.50;;;7.37;;
4742;SDS011;24293;48.154;7.748;2023-06-26T09:08:25;10.00;;;7.23;;
4742;SDS011;24293;48.154;7.748;2023-06-26T09:10:53;9.77;;;7.03;;
4742;SDS011;24293;48.154;7.748;2023-06-26T09:13:20;8.37;;;6.13;;
4742;SDS011;24293;48.154;7.748;2023-06-26T09:15:47;8.47;;;6.00;;
4742;SDS011;24293;48.154;7.748;2023-06-26T09:18:13;9.47;;;6.50;;
4742;SDS011;24293;48.154;7.748;2023-06-26T09:20:42;9.13;;;6.90;;
4742;SDS011;24293;48.154;7.748;2023-06-26T09:23:09;9.40;;;6.77;;
4742;SDS011;24293;48.154;7.748;2023-06-26T09:25:37;9.57;;;6.23;;
4742;SDS011;24293;48.154;7.748;2023-06-26T09:28:06;9.77;;;6.70;;
4742;SDS011;24293;48.154;7.748;2023-06-26T09:30:32;14.43;;;6.77;;
4742;SDS011;24293;48.154;7.748;2023-06-26T09:33:02;12.70;;;7.37;;
4742;SDS011;24293;48.154;7.748;2023-06-26T09:35:42;13.57;;;7.23;;
4742;SDS011;24293;48.154;7.748;2023-06-26T09:38:08;12.10;;;7.47;;
4742;SDS011;24293;48.154;7.748;2023-06-26T09:40:35;10.73;;;7.40;;
4742;SDS011;24293;48.154;7.748;2023-06-26T09:43:03;12.60;;;6.73;;
4742;SDS011;24293;48.154;7.748;2023-06-26T09:45:32;12.67;;;6.70;;
4742;SDS011;24293;48.154;7.748;2023-06-26T09:47:59;11.17;;;6.70;;
4742;SDS011;24293;48.154;7.748;2023-06-26T09:50:26;10.83;;;7.20;;
4742;SDS011;24293;48.154;7.748;2023-06-26T09:52:52;10.63;;;6.93;;
4742;SDS011;24293;48.154;7.748;2023-06-26T09:55:19;19.33;;;7.40;;
4742;SDS011;24293;48.154;7.748;2023-06-26T09:57:47;12.20;;;7.93;;
4742;SDS011;24293;48.154;7.748;2023-06-26T10:00:14;12.60;;;7.50;;
4742;SDS011;24293;48.154;7.748;2023-06-26T10:02:42;9.17;;;6.27;;
4742;SDS011;24293;48.154;7.748;2023-06-26T10:05:09;14.87;;;8.07;;
4742;SDS011;24293;48.154;7.748;2023-06-26T10:07:35;10.13;;;6.53;;
4742;SDS011;24293;48.154;7.748;2023-06-26T10:10:02;11.27;;;6.50;;
4742;SDS011;24293;48.154;7.748;2023-06-26T10:12:30;14.70;;;7.70;;
4742;SDS011;24293;48.154;7.748;2023-06-26T10:14:58;9.63;;;6.50;;
4742;SDS011;24293;48.154;7.748;2023-06-26T10:17:27;11.80;;;7.77;;
4742;SDS011;24293;48.154;7.748;2023-06-26T10:19:55;11.07;;;7.07;;
4742;SDS011;24293;48.154;7.748;2023-06-26T10:22:25;10.03;;;6.90;;
4742;SDS011;24293;48.154;7.748;2023-06-26T10:24:53;11.33;;;7.30;;
4742;SDS011;24293;48.154;7.748;2023-06-26T10:27:23;12.43;;;7.63;;
4742;SDS011;24293;48.154;7.748;2023-06-26T10:29:50;14.33;;;6.90;;
4742;SDS011;24293;48.154;7.748;2023-06-26T10:32:18;9.77;;;6.77;;
4742;SDS011;24293;48.154;7.748;2023-06-26T10:34:46;10.60;;;7.77;;
4742;SDS011;24293;48.154;7.748;2023-06-26T10:37:14;8.80;;;6.53;;
4742;SDS011;24293;48.154;7.748;2023-06-26T10:39:47;9.97;;;7.47;;
4742;SDS011;24293;48.154;7.748;2023-06-26T10:42:14;12.43;;;6.87;;
4742;SDS011;24293;48.154;7.748;2023-06-26T10:44:41;13.27;;;7.83;;
4742;SDS011;24293;48.154;7.748;2023-06-26T10:47:10;9.93;;;7.83;;
4742;SDS011;24293;48.154;7.748;2023-06-26T10:49:36;17.03;;;6.77;;
4742;SDS011;24293;48.154;7.748;2023-06-26T10:52:04;9.93;;;7.37;;
4742;SDS011;24293;48.154;7.748;2023-06-26T10:54:32;11.73;;;7.70;;
4742;SDS011;24293;48.154;7.748;2023-06-26T10:56:59;14.30;;;8.20;;
4742;SDS011;24293;48.154;7.748;2023-06-26T10:59:28;9.87;;;7.50;;
4742;SDS011;24293;48.154;7.748;2023-06-26T11:01:56;17.13;;;8.10;;
4742;SDS011;24293;48.154;7.748;2023-06-26T11:04:36;12.13;;;8.37;;
4742;SDS011;24293;48.154;7.748;2023-06-26T11:09:55;16.87;;;7.20;;
4742;SDS011;24293;48.154;7.748;2023-06-26T11:12:35;11.10;;;8.10;;
4742;SDS011;24293;48.154;7.748;2023-06-26T11:15:02;12.83;;;8.27;;
4742;SDS011;24293;48.154;7.748;2023-06-26T11:17:29;9.73;;;7.57;;
4742;SDS011;24293;48.154;7.748;2023-06-26T11:19:55;9.83;;;7.70;;
4742;SDS011;24293;48.154;7.748;2023-06-26T11:22:22;12.63;;;7.70;;
4742;SDS011;24293;48.154;7.748;2023-06-26T11:24:51;8.87;;;7.00;;
4742;SDS011;24293;48.154;7.748;2023-06-26T11:27:20;10.00;;;7.77;;
4742;SDS011;24293;48.154;7.748;2023-06-26T11:29:48;9.93;;;6.07;;
4742;SDS011;24293;48.154;7.748;2023-06-26T11:32:15;13.77;;;6.60;;
4742;SDS011;24293;48.154;7.748;2023-06-26T11:34:41;9.00;;;6.30;;
4742;SDS011;24293;48.154;7.748;2023-06-26T11:37:09;11.43;;;7.37;;
4742;SDS011;24293;48.154;7.748;2023-06-26T11:39:37;10.57;;;6.53;;
4742;SDS011;24293;48.154;7.748;2023-06-26T11:42:04;10.33;;;6.73;;
4742;SDS011;24293;48.154;7.748;2023-06-26T11:44:32;11.40;;;6.47;;
4742;SDS011;24293;48.154;7.748;2023-06-26T11:47:05;8.83;;;6.17;;
4742;SDS011;24293;48.154;7.748;2023-06-26T11:49:32;8.13;;;5.90;;
4742;SDS011;24293;48.154;7.748;2023-06-26T11:51:58;13.30;;;6.60;;
4742;SDS011;24293;48.154;7.748;2023-06-26T11:54:26;11.03;;;6.40;;
4742;SDS011;24293;48.154;7.748;2023-06-26T11:56:53;13.07;;;5.97;;
4742;SDS011;24293;48.154;7.748;2023-06-26T11:59:21;11.33;;;5.43;;
4742;SDS011;24293;48.154;7.748;2023-06-26T12:01:50;11.73;;;5.43;;
4742;SDS011;24293;48.154;7.748;2023-06-26T12:04:17;8.10;;;4.90;;
4742;SDS011;24293;48.154;7.748;2023-06-26T12:06:48;9.90;;;5.90;;
4742;SDS011;24293;48.154;7.748;2023-06-26T12:09:15;8.33;;;5.33;;
4742;SDS011;24293;48.154;7.748;2023-06-26T12:11:42;11.00;;;5.83;;
4742;SDS011;24293;48.154;7.748;2023-06-26T12:14:09;14.60;;;5.50;;
4742;SDS011;24293;48.154;7.748;2023-06-26T12:16:36;8.90;;;5.53;;
4742;SDS011;24293;48.154;7.748;2023-06-26T12:19:06;9.73;;;5.57;;
4742;SDS011;24293;48.154;7.748;2023-06-26T12:21:46;9.23;;;5.27;;
4742;SDS011;24293;48.154;7.748;2023-06-26T12:24:14;8.70;;;5.87;;
4742;SDS011;24293;48.154;7.748;2023-06-26T12:26:41;8.20;;;5.53;;
4742;SDS011;24293;48.154;7.748;2023-06-26T12:29:08;9.47;;;5.30;;
4742;SDS011;24293;48.154;7.748;2023-06-26T12:31:39;14.00;;;5.83;;
4742;SDS011;24293;48.154;7.748;2023-06-26T12:34:09;10.23;;;6.40;;
4742;SDS011;24293;48.154;7.748;2023-06-26T12:36:40;9.37;;;5.57;;
4742;SDS011;24293;48.154;7.748;2023-06-26T12:39:08;12.67;;;5.47;;
4742;SDS011;24293;48.154;7.748;2023-06-26T12:41:35;8.97;;;5.53;;
4742;SDS011;24293;48.154;7.748;2023-06-26T12:44:02;11.67;;;6.37;;
4742;SDS011;24293;48.154;7.748;2023-06-26T12:46:34;9.17;;;4.93;;
4742;SDS011;24293;48.154;7.748;2023-06-26T12:49:01;8.37;;;5.33;;
4742;SDS011;24293;48.154;7.748;2023-06-26T12:51:29;9.57;;;5.43;;
4742;SDS011;24293;48.154;7.748;2023-06-26T12:53:56;6.30;;;4.80;;
4742;SDS011;24293;48.154;7.748;2023-06-26T12:56:22;7.60;;;5.03;;
4742;SDS011;24293;48.154;7.748;2023-06-26T12:58:48;6.77;;;4.20;;
4742;SDS011;24293;48.154;7.748;2023-06-26T13:01:15;9.77;;;4.73;;
4742;SDS011;24293;48.154;7.748;2023-06-26T13:03:45;6.80;;;4.60;;
4742;SDS011;24293;48.154;7.748;2023-06-26T13:06:11;11.20;;;4.57;;
4742;SDS011;24293;48.154;7.748;2023-06-26T13:08:41;8.00;;;4.57;;
4742;SDS011;24293;48.154;7.748;2023-06-26T13:11:08;9.13;;;5.07;;
4742;SDS011;24293;48.154;7.748;2023-06-26T13:13:34;8.77;;;4.70;;
4742;SDS011;24293;48.154;7.748;2023-06-26T13:16:01;7.07;;;4.57;;
4742;SDS011;24293;48.154;7.748;2023-06-26T13:18:27;8.80;;;4.70;;
4742;SDS011;24293;48.154;7.748;2023-06-26T13:20:54;10.20;;;4.73;;
4742;SDS011;24293;48.154;7.748;2023-06-26T13:23:20;8.50;;;5.83;;
4742;SDS011;24293;48.154;7.748;2023-06-26T13:25:48;7.70;;;5.27;;
4742;SDS011;24293;48.154;7.748;2023-06-26T13:28:15;7.67;;;5.20;;
4742;SDS011;24293;48.154;7.748;2023-06-26T13:30:42;7.83;;;4.93;;
4742;SDS011;24293;48.154;7.748;2023-06-26T13:33:09;7.37;;;4.10;;
4742;SDS011;24293;48.154;7.748;2023-06-26T13:35:36;7.10;;;4.27;;
4742;SDS011;24293;48.154;7.748;2023-06-26T13:38:02;6.60;;;4.17;;
4742;SDS011;24293;48.154;7.748;2023-06-26T13:40:28;7.40;;;4.77;;
4742;SDS011;24293;48.154;7.748;2023-06-26T13:42:56;7.30;;;3.67;;
4742;SDS011;24293;48.154;7.748;2023-06-26T13:45:24;7.47;;;4.37;;
4742;SDS011;24293;48.154;7.748;2023-06-26T13:47:51;7.57;;;4.13;;
4742;SDS011;24293;48.154;7.748;2023-06-26T13:50:17;5.57;;;3.67;;
4742;SDS011;24293;48.154;7.748;2023-06-26T13:52:44;5.93;;;3.93;;
4742;SDS011;24293;48.154;7.748;2023-06-26T13:55:10;6.17;;;3.30;;
4742;SDS011;24293;48.154;7.748;2023-06-26T13:57:37;7.27;;;4.20;;
4742;SDS011;24293;48.154;7.748;2023-06-26T14:00:08;9.00;;;3.70;;
4742;SDS011;24293;48.154;7.748;2023-06-26T14:02:36;6.90;;;3.83;;
4742;SDS011;24293;48.154;7.748;2023-06-26T14:05:03;5.50;;;3.20;;
4742;SDS011;24293;48.154;7.748;2023-06-26T14:07:29;7.37;;;3.50;;
4742;SDS011;24293;48.154;7.748;2023-06-26T14:09:56;4.50;;;3.07;;
4742;SDS011;24293;48.154;7.748;2023-06-26T14:12:23;5.57;;;3.50;;
4742;SDS011;24293;48.154;7.748;2023-06-26T14:14:50;4.77;;;3.00;;
4742;SDS011;24293;48.154;7.748;2023-06-26T14:17:18;5.93;;;3.53;;
4742;SDS011;24293;48.154;7.748;2023-06-26T14:19:44;7.30;;;4.03;;
4742;SDS011;24293;48.154;7.748;2023-06-26T14:22:11;7.80;;;3.70;;
4742;SDS011;24293;48.154;7.748;2023-06-26T14:24:38;5.57;;;3.20;;
4742;SDS011;24293;48.154;7.748;2023-06-26T14:27:04;5.70;;;3.70;;
4742;SDS011;24293;48.154;7.748;2023-06-26T14:29:31;8.60;;;3.40;;
4742;SDS011;24293;48.154;7.748;2023-06-26T14:31:57;7.70;;;3.63;;
4742;SDS011;24293;48.154;7.748;2023-06-26T14:34:25;6.33;;;4.00;;
4742;SDS011;24293;48.154;7.748;2023-06-26T14:36:51;7.47;;;3.37;;
4742;SDS011;24293;48.154;7.748;2023-06-26T14:39:18;7.47;;;4.20;;
4742;SDS011;24293;48.154;7.748;2023-06-26T14:41:44;5.67;;;4.07;;
4742;SDS011;24293;48.154;7.748;2023-06-26T14:44:12;6.00;;;3.70;;
4742;SDS011;24293;48.154;7.748;2023-06-26T14:46:38;22.17;;;3.93;;
4742;SDS011;24293;48.154;7.748;2023-06-26T14:49:05;5.80;;;3.87;;
4742;SDS011;24293;48.154;7.748;2023-06-26T14:51:33;7.20;;;4.67;;
4742;SDS011;24293;48.154;7.748;2023-06-26T14:53:59;7.83;;;4.13;;
4742;SDS011;24293;48.154;7.748;2023-06-26T14:56:26;8.60;;;4.60;;